createdAt,value
2023-05-04T00:00:59.559Z,29.64
2023-05-04T00:01:59.627Z,29.65
2023-05-04T00:02:59.765Z,29.64
2023-05-04T00:03:59.818Z,29.64
2023-05-04T00:04:59.780Z,29.62
2023-05-04T00:05:59.777Z,29.64
2023-05-04T00:06:59.854Z,29.62
2023-05-04T00:08:00.042Z,29.64
2023-05-04T00:08:59.928Z,29.60
2023-05-04T00:10:00.044Z,29.68
2023-05-04T00:11:00.037Z,29.68
2023-05-04T00:12:00.130Z,29.64
2023-05-04T00:13:00.179Z,29.70
2023-05-04T00:14:00.205Z,29.65
2023-05-04T00:15:00.299Z,29.64
2023-05-04T00:16:00.341Z,29.60
2023-05-04T00:17:00.451Z,29.65
2023-05-04T00:18:00.498Z,29.65
2023-05-04T00:19:00.514Z,29.65
2023-05-04T00:20:00.527Z,29.71
2023-05-04T00:21:00.632Z,29.67
2023-05-04T00:22:00.680Z,29.65
2023-05-04T00:23:00.696Z,29.68
2023-05-04T00:24:00.793Z,29.66
2023-05-04T00:25:00.827Z,29.75
2023-05-04T00:26:00.911Z,29.71
2023-05-04T00:27:00.950Z,29.69
2023-05-04T00:28:00.978Z,29.66
2023-05-04T00:29:01.077Z,29.72
2023-05-04T00:30:01.137Z,29.68
2023-05-04T00:31:01.206Z,29.65
2023-05-04T00:32:01.334Z,29.71
2023-05-04T00:33:01.327Z,29.68
2023-05-04T00:34:01.295Z,29.72
2023-05-04T00:35:01.396Z,29.71
2023-05-04T00:36:01.413Z,29.71
2023-05-04T00:37:01.508Z,29.72
2023-05-04T00:38:01.564Z,29.68
2023-05-04T00:39:01.605Z,29.71
2023-05-04T00:40:01.798Z,29.71
2023-05-04T00:41:01.721Z,29.69
2023-05-04T00:42:01.795Z,29.76
2023-05-04T00:43:01.840Z,29.71
2023-05-04T00:44:01.925Z,29.73
2023-05-04T00:46:02.514Z,29.76
2023-05-04T00:47:02.603Z,29.78
2023-05-04T00:48:02.513Z,29.79
2023-05-04T00:49:02.497Z,29.68
2023-05-04T00:50:02.751Z,29.73
2023-05-04T00:51:02.518Z,29.72
2023-05-04T00:52:02.478Z,29.73
2023-05-04T00:53:02.466Z,29.68
2023-05-04T00:54:02.494Z,29.73
2023-05-04T00:55:02.458Z,29.73
2023-05-04T00:56:02.442Z,29.76
2023-05-04T00:57:02.462Z,29.72
2023-05-04T00:58:02.429Z,29.75
2023-05-04T00:59:02.472Z,29.73
2023-05-04T01:00:02.569Z,29.75
2023-05-04T01:01:02.473Z,29.74
2023-05-04T01:02:02.409Z,29.73
2023-05-04T01:03:02.507Z,29.78
2023-05-04T01:04:02.432Z,29.82
2023-05-04T01:05:02.415Z,29.76
2023-05-04T01:06:02.384Z,29.76
2023-05-04T01:07:02.427Z,29.73
2023-05-04T01:08:02.389Z,29.77
2023-05-04T01:09:02.368Z,29.79
2023-05-04T01:10:02.565Z,29.80
2023-05-04T01:11:02.458Z,29.79
2023-05-04T01:12:02.350Z,29.79
2023-05-04T01:13:02.440Z,29.83
2023-05-04T01:14:02.368Z,29.80
2023-05-04T01:15:02.343Z,29.77
2023-05-04T01:16:02.329Z,29.79
2023-05-04T01:17:02.520Z,29.76
2023-05-04T01:18:02.392Z,29.79
2023-05-04T01:19:02.358Z,29.80
2023-05-04T01:20:02.697Z,29.83
2023-05-04T01:21:02.412Z,29.80
2023-05-04T01:22:02.442Z,29.79
2023-05-04T01:23:02.540Z,29.84
2023-05-04T01:24:02.597Z,29.80
2023-05-04T01:25:02.648Z,29.81
2023-05-04T01:26:02.653Z,29.87
2023-05-04T01:27:02.716Z,29.77
2023-05-04T01:28:02.754Z,29.86
2023-05-04T01:29:02.770Z,29.84
2023-05-04T01:30:02.949Z,29.86
2023-05-04T01:31:02.909Z,29.86
2023-05-04T01:32:02.920Z,29.79
2023-05-04T01:33:03.037Z,29.84
2023-05-04T01:34:03.012Z,29.86
2023-05-04T01:35:03.050Z,29.83
2023-05-04T01:36:03.074Z,29.79
2023-05-04T01:37:03.131Z,29.81
2023-05-04T01:38:03.233Z,29.84
2023-05-04T01:39:03.203Z,29.81
2023-05-04T01:40:03.544Z,29.83
2023-05-04T01:41:03.367Z,29.80
2023-05-04T01:42:03.388Z,29.90
2023-05-04T01:43:03.443Z,29.88
2023-05-04T01:44:03.522Z,29.86
2023-05-04T01:45:03.557Z,29.84
2023-05-04T01:46:03.669Z,29.88
2023-05-04T01:47:03.619Z,29.87
2023-05-04T01:48:03.725Z,29.87
2023-05-04T01:49:03.725Z,29.82
2023-05-04T01:50:03.923Z,29.87
2023-05-04T01:51:03.839Z,29.85
2023-05-04T01:52:03.930Z,29.87
2023-05-04T01:53:03.970Z,29.84
2023-05-04T01:54:03.997Z,29.87
2023-05-04T01:55:04.034Z,29.88
2023-05-04T01:56:04.077Z,29.93
2023-05-04T01:57:04.155Z,29.88
2023-05-04T01:58:04.206Z,29.82
2023-05-04T01:59:04.259Z,29.91
2023-05-04T02:00:04.522Z,29.89
2023-05-04T02:01:04.372Z,29.90
2023-05-04T02:02:04.420Z,29.90
2023-05-04T02:03:04.570Z,29.90
2023-05-04T02:04:04.616Z,29.87
2023-05-04T02:05:04.576Z,29.90
2023-05-04T02:06:04.609Z,29.90
2023-05-04T02:07:04.681Z,29.85
2023-05-04T02:08:04.732Z,29.91
2023-05-04T02:09:04.780Z,29.94
2023-05-04T02:10:05.116Z,29.91
2023-05-04T02:11:04.904Z,29.89
2023-05-04T02:12:04.959Z,29.92
2023-05-04T02:13:05.027Z,29.87
2023-05-04T02:14:05.045Z,29.91
2023-05-04T02:15:05.140Z,29.94
2023-05-04T02:16:05.255Z,29.92
2023-05-04T02:17:05.214Z,29.89
2023-05-04T02:18:05.306Z,29.94
2023-05-04T02:19:05.335Z,29.88
2023-05-04T02:20:05.716Z,29.91
2023-05-04T02:21:05.435Z,29.98
2023-05-04T02:22:05.517Z,29.92
2023-05-04T02:23:05.544Z,29.94
2023-05-04T02:24:05.605Z,29.95
2023-05-04T02:25:05.629Z,29.95
2023-05-04T02:26:05.722Z,29.92
2023-05-04T02:27:05.788Z,29.95
2023-05-04T02:28:05.855Z,29.92
2023-05-04T02:29:05.954Z,29.99
2023-05-04T02:30:06.170Z,29.95
2023-05-04T02:31:06.120Z,29.96
2023-05-04T02:32:06.178Z,29.90
2023-05-04T02:33:06.140Z,29.95
2023-05-04T02:34:06.192Z,29.94
2023-05-04T02:35:06.252Z,29.92
2023-05-04T02:36:06.312Z,29.97
2023-05-04T02:37:07.450Z,29.95
2023-05-04T02:38:06.419Z,29.93
2023-05-04T02:39:06.424Z,29.93
2023-05-04T02:40:06.746Z,29.97
2023-05-04T02:41:06.559Z,29.93
2023-05-04T02:42:06.664Z,29.97
2023-05-04T02:43:06.688Z,29.97
2023-05-04T02:44:06.765Z,29.99
2023-05-04T02:45:06.840Z,29.96
2023-05-04T02:46:06.886Z,29.93
2023-05-04T02:47:06.946Z,29.98
2023-05-04T02:48:07.068Z,30.00
2023-05-04T02:49:07.002Z,29.96
2023-05-04T02:50:07.355Z,30.03
2023-05-04T02:51:07.122Z,29.96
2023-05-04T02:52:07.154Z,29.95
2023-05-04T02:53:07.236Z,29.95
2023-05-04T02:54:07.316Z,29.93
2023-05-04T02:55:07.377Z,30.00
2023-05-04T02:56:07.445Z,30.00
2023-05-04T02:57:07.470Z,30.02
2023-05-04T02:58:07.571Z,29.99
2023-05-04T02:59:07.600Z,30.02
2023-05-04T03:00:07.859Z,30.03
2023-05-04T03:01:07.760Z,29.97
2023-05-04T03:02:07.734Z,30.00
2023-05-04T03:03:07.867Z,29.97
2023-05-04T03:04:07.965Z,30.02
2023-05-04T03:05:07.941Z,29.97
2023-05-04T03:06:07.992Z,30.07
2023-05-04T03:07:08.057Z,30.04
2023-05-04T03:08:08.099Z,30.01
2023-05-04T03:09:08.168Z,29.99
2023-05-04T03:10:08.515Z,30.02
2023-05-04T03:11:08.283Z,30.07
2023-05-04T03:12:08.350Z,30.03
2023-05-04T03:13:08.477Z,30.06
2023-05-04T03:14:08.470Z,30.07
2023-05-04T03:15:08.517Z,30.04
2023-05-04T03:16:08.597Z,30.01
2023-05-04T03:17:08.638Z,30.04
2023-05-04T03:18:08.702Z,30.06
2023-05-04T03:19:08.750Z,30.03
2023-05-04T03:20:08.868Z,29.99
2023-05-04T03:21:08.874Z,30.00
2023-05-04T03:22:08.955Z,30.07
2023-05-04T03:23:08.984Z,30.04
2023-05-04T03:24:09.052Z,30.07
2023-05-04T03:25:09.122Z,30.04
2023-05-04T03:26:09.212Z,30.04
2023-05-04T03:27:09.208Z,30.07
2023-05-04T03:28:09.328Z,30.01
2023-05-04T03:29:09.398Z,30.04
2023-05-04T03:30:09.440Z,30.02
2023-05-04T03:31:09.501Z,30.03
2023-05-04T03:32:09.713Z,30.07
2023-05-04T03:33:09.617Z,30.04
2023-05-04T03:34:09.675Z,30.06
2023-05-04T03:35:09.730Z,30.06
2023-05-04T03:36:09.735Z,30.07
2023-05-04T03:37:09.842Z,30.08
2023-05-04T03:38:09.920Z,30.06
2023-05-04T03:39:09.919Z,30.10
2023-05-04T03:40:10.017Z,30.07
2023-05-04T03:41:10.078Z,30.07
2023-05-04T03:42:10.124Z,30.06
2023-05-04T03:43:10.287Z,30.07
2023-05-04T03:44:10.259Z,30.08
2023-05-04T03:45:10.309Z,30.07
2023-05-04T03:46:10.462Z,30.10
2023-05-04T03:47:10.474Z,30.07
2023-05-04T03:48:10.486Z,30.13
2023-05-04T03:49:10.562Z,30.08
2023-05-04T03:50:10.666Z,30.10
2023-05-04T03:51:10.715Z,30.08
2023-05-04T03:52:10.766Z,30.08
2023-05-04T03:53:10.832Z,30.08
2023-05-04T03:54:10.878Z,30.13
2023-05-04T03:55:10.952Z,30.07
2023-05-04T03:56:10.997Z,30.10
2023-05-04T03:57:11.033Z,30.13
2023-05-04T03:58:11.128Z,30.10
2023-05-04T03:59:11.138Z,30.07
2023-05-04T04:00:11.236Z,30.17
2023-05-04T04:01:11.264Z,30.13
2023-05-04T04:02:11.313Z,30.10
2023-05-04T04:03:11.650Z,30.10
2023-05-04T04:04:11.453Z,30.04
2023-05-04T04:05:11.524Z,30.13
2023-05-04T04:06:11.532Z,30.07
2023-05-04T04:07:11.588Z,30.10
2023-05-04T04:08:11.657Z,30.09
2023-05-04T04:09:11.695Z,30.04
2023-05-04T04:10:11.763Z,30.05
2023-05-04T04:11:11.809Z,30.03
2023-05-04T04:12:11.883Z,30.07
2023-05-04T04:13:11.990Z,30.04
2023-05-04T04:14:12.023Z,29.93
2023-05-04T04:15:12.015Z,29.97
2023-05-04T04:16:12.092Z,29.90
2023-05-04T04:17:12.132Z,29.90
2023-05-04T04:18:12.170Z,29.81
2023-05-04T04:19:12.237Z,29.80
2023-05-04T04:20:12.288Z,29.77
2023-05-04T04:21:12.348Z,29.69
2023-05-04T04:22:12.397Z,29.66
2023-05-04T04:23:12.466Z,29.59
2023-05-04T04:24:12.530Z,29.59
2023-05-04T04:25:12.549Z,29.50
2023-05-04T04:26:12.635Z,29.49
2023-05-04T04:27:12.729Z,29.46
2023-05-04T04:28:12.701Z,29.43
2023-05-04T04:29:12.817Z,29.40
2023-05-04T04:30:12.830Z,29.37
2023-05-04T04:31:12.954Z,29.29
2023-05-04T04:32:12.984Z,29.32
2023-05-04T04:33:13.047Z,29.28
2023-05-04T04:34:13.049Z,29.26
2023-05-04T04:35:13.124Z,29.26
2023-05-04T04:36:13.167Z,29.29
2023-05-04T04:37:13.212Z,29.25
2023-05-04T04:38:13.302Z,29.26
2023-05-04T04:39:13.375Z,29.21
2023-05-04T04:40:13.407Z,29.16
2023-05-04T04:41:13.461Z,29.19
2023-05-04T04:42:13.532Z,29.19
2023-05-04T04:43:13.559Z,29.19
2023-05-04T04:44:13.603Z,29.23
2023-05-04T04:45:13.680Z,29.18
2023-05-04T04:46:13.737Z,29.18
2023-05-04T04:47:13.812Z,29.08
2023-05-04T04:48:13.874Z,29.15
2023-05-04T04:49:13.913Z,29.11
2023-05-04T04:50:13.973Z,29.14
2023-05-04T04:51:14.028Z,29.04
2023-05-04T04:52:14.151Z,29.04
2023-05-04T04:53:14.179Z,29.12
2023-05-04T04:54:14.218Z,29.14
2023-05-04T04:55:14.264Z,29.10
2023-05-04T04:56:14.368Z,29.10
2023-05-04T04:57:14.447Z,29.11
2023-05-04T04:58:14.446Z,29.00
2023-05-04T04:59:14.567Z,29.10
2023-05-04T05:00:14.595Z,29.04
2023-05-04T05:01:14.751Z,29.14
2023-05-04T05:02:14.715Z,29.08
2023-05-04T05:03:14.872Z,29.04
2023-05-04T05:04:14.865Z,29.05
2023-05-04T05:05:14.919Z,29.07
2023-05-04T05:06:14.928Z,29.06
2023-05-04T05:07:15.033Z,29.04
2023-05-04T05:08:15.024Z,29.06
2023-05-04T05:09:15.215Z,28.97
2023-05-04T05:10:15.158Z,29.00
2023-05-04T05:11:15.184Z,29.00
2023-05-04T05:12:15.259Z,28.93
2023-05-04T05:13:15.371Z,28.97
2023-05-04T05:14:15.395Z,28.96
2023-05-04T05:15:15.421Z,28.95
2023-05-04T05:16:15.515Z,28.92
2023-05-04T05:17:15.535Z,28.93
2023-05-04T05:18:15.582Z,28.89
2023-05-04T05:19:15.659Z,28.89
2023-05-04T05:20:15.690Z,28.82
2023-05-04T05:21:15.773Z,28.85
2023-05-04T05:22:15.841Z,28.89
2023-05-04T05:23:15.888Z,28.86
2023-05-04T05:24:15.901Z,28.83
2023-05-04T05:25:15.977Z,28.82
2023-05-04T05:26:16.009Z,28.83
2023-05-04T05:27:16.086Z,28.82
2023-05-04T05:28:16.131Z,28.78
2023-05-04T05:29:16.162Z,28.80
2023-05-04T05:30:16.286Z,28.81
2023-05-04T05:31:16.337Z,28.88
2023-05-04T05:32:16.365Z,28.55
2023-05-04T05:33:16.414Z,28.20
2023-05-04T05:34:16.411Z,28.18
2023-05-04T05:35:16.500Z,27.95
2023-05-04T05:36:16.406Z,28.17
2023-05-04T05:37:16.487Z,27.51
2023-05-04T05:38:16.506Z,27.99
2023-05-04T05:39:16.528Z,28.32
2023-05-04T05:40:16.591Z,28.36
2023-05-04T05:41:16.602Z,28.48
2023-05-04T05:42:16.590Z,28.58
2023-05-04T05:43:16.679Z,28.91
2023-05-04T05:44:16.695Z,28.96
2023-05-04T05:45:16.752Z,28.94
2023-05-04T05:46:16.856Z,29.01
2023-05-04T05:47:16.758Z,29.28
2023-05-04T05:48:17.309Z,29.39
2023-05-04T05:49:16.880Z,29.55
2023-05-04T05:50:16.917Z,29.61
2023-05-04T05:51:16.988Z,29.59
2023-05-04T05:52:17.008Z,29.53
2023-05-04T05:53:17.046Z,29.65
2023-05-04T05:54:17.137Z,29.92
2023-05-04T05:55:17.157Z,30.09
2023-05-04T05:56:17.163Z,30.16
2023-05-04T05:57:17.195Z,29.89
2023-05-04T05:58:17.292Z,29.82
2023-05-04T05:59:17.181Z,29.80
2023-05-04T06:00:17.169Z,29.82
2023-05-04T06:01:17.190Z,29.96
2023-05-04T06:02:17.173Z,30.04
2023-05-04T06:03:17.401Z,29.99
2023-05-04T06:04:17.266Z,29.84
2023-05-04T06:05:17.199Z,30.04
2023-05-04T06:06:17.281Z,29.93
2023-05-04T06:07:17.322Z,30.01
2023-05-04T06:08:17.317Z,30.26
2023-05-04T06:09:17.406Z,30.25
2023-05-04T06:10:17.413Z,30.08
2023-05-04T06:11:17.859Z,30.24
2023-05-04T06:12:17.517Z,30.13
2023-05-04T06:13:17.966Z,30.45
2023-05-04T06:14:17.838Z,30.28
2023-05-04T06:15:17.672Z,30.27
2023-05-04T06:16:17.833Z,30.18
2023-05-04T06:17:17.864Z,29.65
2023-05-04T06:18:17.862Z,29.91
2023-05-04T06:19:17.880Z,30.05
2023-05-04T06:20:17.885Z,30.10
2023-05-04T06:21:17.874Z,29.92
2023-05-04T06:22:17.928Z,30.09
2023-05-04T06:23:17.913Z,29.89
2023-05-04T06:24:18.313Z,29.82
2023-05-04T06:25:17.923Z,30.06
2023-05-04T06:26:17.923Z,30.20
2023-05-04T06:27:17.924Z,30.13
2023-05-04T06:28:18.367Z,30.22
2023-05-04T06:29:17.953Z,30.08
2023-05-04T06:30:17.996Z,29.74
2023-05-04T06:31:18.017Z,29.53
2023-05-04T06:32:18.109Z,29.51
2023-05-04T06:33:18.307Z,29.20
2023-05-04T06:34:18.074Z,29.17
2023-05-04T06:35:18.026Z,28.94
2023-05-04T06:36:18.058Z,29.41
2023-05-04T06:37:18.040Z,29.32
2023-05-04T06:38:18.039Z,28.63
2023-05-04T06:39:18.067Z,28.14
2023-05-04T06:40:18.071Z,28.53
2023-05-04T06:41:18.070Z,28.39
2023-05-04T06:42:18.104Z,28.38
2023-05-04T06:43:18.183Z,28.27
2023-05-04T06:44:18.255Z,28.29
2023-05-04T06:45:18.250Z,28.38
2023-05-04T06:46:18.443Z,28.34
2023-05-04T06:47:18.313Z,28.13
2023-05-04T06:48:18.326Z,27.96
2023-05-04T06:49:18.436Z,28.25
2023-05-04T06:50:18.498Z,28.31
2023-05-04T06:51:18.559Z,28.58
2023-05-04T06:52:18.885Z,28.59
2023-05-04T06:53:18.651Z,28.50
2023-05-04T06:54:18.831Z,28.36
2023-05-04T06:55:18.769Z,28.25
2023-05-04T06:56:18.833Z,28.14
2023-05-04T06:57:18.884Z,28.34
2023-05-04T06:58:18.900Z,28.34
2023-05-04T06:59:18.971Z,28.59
2023-05-04T07:00:19.374Z,28.58
2023-05-04T07:01:19.069Z,28.67
2023-05-04T07:02:19.142Z,28.69
2023-05-04T07:03:19.179Z,28.70
2023-05-04T07:04:19.224Z,28.58
2023-05-04T07:05:19.343Z,28.34
2023-05-04T07:06:19.272Z,28.20
2023-05-04T07:07:19.331Z,28.33
2023-05-04T07:08:19.440Z,28.54
2023-05-04T07:09:19.447Z,28.27
2023-05-04T07:10:19.608Z,28.45
2023-05-04T07:11:19.562Z,28.60
2023-05-04T07:12:19.615Z,28.29
2023-05-04T07:13:19.684Z,28.23
2023-05-04T07:14:19.640Z,28.25
2023-05-04T07:15:19.732Z,28.17
2023-05-04T07:16:19.766Z,28.25
2023-05-04T07:17:19.795Z,28.29
2023-05-04T07:18:19.853Z,28.44
2023-05-04T07:19:19.869Z,28.45
2023-05-04T07:20:19.962Z,28.40
2023-05-04T07:22:20.093Z,28.51
2023-05-04T07:23:20.114Z,28.91
2023-05-04T07:24:20.197Z,28.73
2023-05-04T07:25:20.373Z,29.05
2023-05-04T07:26:20.263Z,28.93
2023-05-04T07:27:20.371Z,29.17
2023-05-04T07:28:20.398Z,29.00
2023-05-04T07:29:20.418Z,28.69
2023-05-04T07:30:20.889Z,28.66
2023-05-04T07:31:20.545Z,28.25
2023-05-04T07:32:20.627Z,27.98
2023-05-04T07:33:20.716Z,28.90
2023-05-04T07:34:23.218Z,28.92
2023-05-04T07:35:20.881Z,28.89
2023-05-04T07:36:20.718Z,29.16
2023-05-04T07:37:20.689Z,29.29
2023-05-04T07:38:20.703Z,29.61
2023-05-04T07:39:20.670Z,29.71
2023-05-04T07:40:20.706Z,30.43
2023-05-04T07:41:20.924Z,30.26
2023-05-04T07:42:20.632Z,30.62
2023-05-04T07:43:20.649Z,30.51
2023-05-04T07:44:20.735Z,30.27
2023-05-04T07:45:20.852Z,30.26
2023-05-04T07:46:20.631Z,29.94
2023-05-04T07:47:20.660Z,29.69
2023-05-04T07:48:20.997Z,30.15
2023-05-04T07:49:20.559Z,30.38
2023-05-04T07:50:20.929Z,30.08
2023-05-04T07:51:20.988Z,29.95
2023-05-04T07:52:20.596Z,29.81
2023-05-04T07:53:20.608Z,29.87
2023-05-04T07:54:22.593Z,30.19
2023-05-04T07:55:20.602Z,30.25
2023-05-04T07:56:20.928Z,30.62
2023-05-04T07:57:20.717Z,30.58
2023-05-04T07:58:20.730Z,30.38
2023-05-04T07:59:21.054Z,30.13
2023-05-04T08:00:20.847Z,29.97
2023-05-04T08:01:20.851Z,29.94
2023-05-04T08:02:21.065Z,30.29
2023-05-04T08:03:20.992Z,30.70
2023-05-04T08:04:21.154Z,30.29
2023-05-04T08:05:21.593Z,30.21
2023-05-04T08:06:21.479Z,31.12
2023-05-04T08:07:21.018Z,30.44
2023-05-04T08:08:21.844Z,30.27
2023-05-04T08:09:21.213Z,30.34
2023-05-04T08:10:21.125Z,30.25
2023-05-04T08:11:21.458Z,30.19
2023-05-04T08:12:21.196Z,30.58
2023-05-04T08:13:21.360Z,30.49
2023-05-04T08:14:21.244Z,30.29
2023-05-04T08:15:21.244Z,30.24
2023-05-04T08:16:21.268Z,30.39
2023-05-04T08:17:21.272Z,30.57
2023-05-04T08:18:21.240Z,30.63
2023-05-04T08:19:21.294Z,30.56
2023-05-04T08:20:23.516Z,30.63
2023-05-04T08:21:21.287Z,31.05
2023-05-04T08:22:21.272Z,30.91
2023-05-04T08:23:21.480Z,30.60
2023-05-04T08:24:21.332Z,30.34
2023-05-04T08:25:21.286Z,30.65
2023-05-04T08:26:21.344Z,31.00
2023-05-04T08:27:21.463Z,30.43
2023-05-04T08:28:21.269Z,30.36
2023-05-04T08:29:21.321Z,29.50
2023-05-04T08:30:21.337Z,28.30
2023-05-04T08:31:21.376Z,27.72
2023-05-04T08:32:21.609Z,27.64
2023-05-04T08:33:21.374Z,27.36
2023-05-04T08:34:21.492Z,26.93
2023-05-04T08:35:21.490Z,27.05
2023-05-04T08:36:21.541Z,26.99
2023-05-04T08:37:21.610Z,26.70
2023-05-04T08:38:22.120Z,26.84
2023-05-04T08:39:21.687Z,26.78
2023-05-04T08:40:21.817Z,26.83
2023-05-04T08:41:21.856Z,26.94
2023-05-04T08:42:21.828Z,27.35
2023-05-04T08:43:21.785Z,27.76
2023-05-04T08:44:21.887Z,28.14
2023-05-04T08:45:21.837Z,28.16
2023-05-04T08:46:21.926Z,28.26
2023-05-04T08:47:22.160Z,28.25
2023-05-04T08:48:22.001Z,28.14
2023-05-04T08:49:22.122Z,28.32
2023-05-04T08:50:22.110Z,28.31
2023-05-04T08:51:22.119Z,28.14
2023-05-04T08:52:22.202Z,28.20
2023-05-04T08:53:22.253Z,28.02
2023-05-04T08:54:22.249Z,28.16
2023-05-04T08:55:22.318Z,28.05
2023-05-04T08:56:22.353Z,28.23
2023-05-04T08:57:22.373Z,28.28
2023-05-04T08:58:22.390Z,28.29
2023-05-04T08:59:22.439Z,28.30
2023-05-04T09:00:22.565Z,28.15
2023-05-04T09:01:22.663Z,28.28
2023-05-04T09:02:22.597Z,28.36
2023-05-04T09:03:22.575Z,28.38
2023-05-04T09:04:22.550Z,28.38
2023-05-04T09:05:22.597Z,28.40
2023-05-04T09:06:22.546Z,28.52
2023-05-04T09:07:22.565Z,28.57
2023-05-04T09:08:22.611Z,28.53
2023-05-04T09:09:22.599Z,28.53
2023-05-04T09:10:22.620Z,28.56
2023-05-04T09:11:22.635Z,28.65
2023-05-04T09:12:22.883Z,28.77
2023-05-04T09:13:22.588Z,28.74
2023-05-04T09:14:22.968Z,28.79
2023-05-04T09:15:22.613Z,28.74
2023-05-04T09:16:22.643Z,28.72
2023-05-04T09:17:22.631Z,28.56
2023-05-04T09:18:22.659Z,28.84
2023-05-04T09:19:22.582Z,28.91
2023-05-04T09:20:22.624Z,28.90
2023-05-04T09:21:22.624Z,28.84
2023-05-04T09:22:22.616Z,28.69
2023-05-04T09:23:22.778Z,28.86
2023-05-04T09:24:22.767Z,28.85
2023-05-04T09:25:22.712Z,28.91
2023-05-04T09:26:22.777Z,28.92
2023-05-04T09:27:22.843Z,29.00
2023-05-04T09:28:22.900Z,29.04
2023-05-04T09:29:23.008Z,28.97
2023-05-04T09:30:23.068Z,29.45
2023-05-04T09:31:23.509Z,28.50
2023-05-04T09:32:23.125Z,28.73
2023-05-04T09:33:23.011Z,28.54
2023-05-04T09:34:23.050Z,28.58
2023-05-04T09:35:32.368Z,28.66
2023-05-04T09:36:24.028Z,28.46
2023-05-04T09:37:23.015Z,28.73
2023-05-04T09:38:23.052Z,28.40
2023-05-04T09:39:22.959Z,28.19
2023-05-04T09:40:22.964Z,27.79
2023-05-04T09:41:22.966Z,27.71
2023-05-04T09:42:23.006Z,28.20
2023-05-04T09:43:23.983Z,27.55
2023-05-04T09:44:22.968Z,27.48
2023-05-04T09:45:23.005Z,27.20
2023-05-04T09:46:23.459Z,27.33
2023-05-04T09:47:22.927Z,27.18
2023-05-04T09:48:22.917Z,27.16
2023-05-04T09:49:22.921Z,27.01
2023-05-04T09:50:22.954Z,26.82
2023-05-04T09:51:22.904Z,26.86
2023-05-04T09:52:22.947Z,26.74
2023-05-04T09:53:22.913Z,26.82
2023-05-04T09:54:22.886Z,26.63
2023-05-04T09:55:22.862Z,26.49
2023-05-04T09:56:22.930Z,26.83
2023-05-04T09:57:22.891Z,26.84
2023-05-04T09:58:22.989Z,26.84
2023-05-04T09:59:22.854Z,26.89
2023-05-04T10:00:22.888Z,27.16
2023-05-04T10:01:22.913Z,27.22
2023-05-04T10:02:23.543Z,27.03
2023-05-04T10:03:22.868Z,26.88
2023-05-04T10:04:22.836Z,26.77
2023-05-04T10:05:22.863Z,26.69
2023-05-04T10:06:22.797Z,26.42
2023-05-04T10:07:22.842Z,26.52
2023-05-04T10:08:22.808Z,26.36
2023-05-04T10:09:22.761Z,26.65
2023-05-04T10:10:22.829Z,26.45
2023-05-04T10:11:22.766Z,26.85
2023-05-04T10:12:22.835Z,26.55
2023-05-04T10:13:22.925Z,26.52
2023-05-04T10:14:22.891Z,26.58
2023-05-04T10:15:22.920Z,26.13
2023-05-04T10:16:22.988Z,26.67
2023-05-04T10:17:23.082Z,26.19
2023-05-04T10:18:23.057Z,26.72
2023-05-04T10:19:23.204Z,26.05
2023-05-04T10:20:23.172Z,26.13
2023-05-04T10:21:23.277Z,26.09
2023-05-04T10:22:23.356Z,26.03
2023-05-04T10:23:24.033Z,26.07
2023-05-04T10:24:23.431Z,26.07
2023-05-04T10:25:23.489Z,26.16
2023-05-04T10:26:23.472Z,26.29
2023-05-04T10:27:24.636Z,26.76
2023-05-04T10:28:23.585Z,26.97
2023-05-04T10:29:24.001Z,26.96
2023-05-04T10:30:23.697Z,26.85
2023-05-04T10:31:23.720Z,26.96
2023-05-04T10:32:23.806Z,27.09
2023-05-04T10:33:23.836Z,26.92
2023-05-04T10:34:23.843Z,27.11
2023-05-04T10:35:24.181Z,27.26
2023-05-04T10:36:23.932Z,27.24
2023-05-04T10:37:23.988Z,27.24
2023-05-04T10:38:24.408Z,27.36
2023-05-04T10:39:24.142Z,27.36
2023-05-04T10:40:24.165Z,27.48
2023-05-04T10:41:24.249Z,27.43
2023-05-04T10:42:24.166Z,27.68
2023-05-04T10:43:24.285Z,27.66
2023-05-04T10:44:24.182Z,27.66
2023-05-04T10:45:24.291Z,27.76
2023-05-04T10:46:24.288Z,27.79
2023-05-04T10:47:24.321Z,27.77
2023-05-04T10:48:24.323Z,27.85
2023-05-04T10:49:24.260Z,28.04
2023-05-04T10:50:24.369Z,28.07
2023-05-04T10:51:24.516Z,28.04
2023-05-04T10:52:24.342Z,28.14
2023-05-04T10:53:24.280Z,28.17
2023-05-04T10:54:24.313Z,28.12
2023-05-04T10:55:24.292Z,28.28
2023-05-04T10:56:24.327Z,28.34
2023-05-04T10:57:24.276Z,28.41
2023-05-04T10:58:24.289Z,28.42
2023-05-04T10:59:24.244Z,28.54
2023-05-04T11:00:24.312Z,28.51
2023-05-04T11:01:24.289Z,28.56
2023-05-04T11:02:24.397Z,28.68
2023-05-04T11:03:24.355Z,28.67
2023-05-04T11:04:24.912Z,28.91
2023-05-04T11:05:24.223Z,28.91
2023-05-04T11:06:24.504Z,28.97
2023-05-04T11:07:24.209Z,28.99
2023-05-04T11:08:24.250Z,29.09
2023-05-04T11:09:24.213Z,29.18
2023-05-04T11:10:24.246Z,29.25
2023-05-04T11:11:24.228Z,29.48
2023-05-04T11:12:24.252Z,29.45
2023-05-04T11:13:24.342Z,29.59
2023-05-04T11:14:24.452Z,29.70
2023-05-04T11:15:24.456Z,29.64
2023-05-04T11:16:24.214Z,30.06
2023-05-04T11:17:28.550Z,30.14
2023-05-04T11:18:24.439Z,29.76
2023-05-04T11:19:24.453Z,27.90
2023-05-04T11:20:24.483Z,28.43
2023-05-04T11:21:24.437Z,27.92
2023-05-04T11:22:24.276Z,27.32
2023-05-04T11:23:24.484Z,26.56
2023-05-04T11:24:24.461Z,25.25
2023-05-04T11:25:24.075Z,26.33
2023-05-04T11:26:24.088Z,25.37
2023-05-04T11:27:24.052Z,24.30
2023-05-04T11:28:24.059Z,24.39
2023-05-04T11:29:24.082Z,24.29
2023-05-04T11:30:24.044Z,24.06
2023-05-04T11:31:24.216Z,23.56
2023-05-04T11:32:24.190Z,24.16
2023-05-04T11:33:24.008Z,23.90
2023-05-04T11:34:24.021Z,24.08
2023-05-04T11:35:23.969Z,23.80
2023-05-04T11:36:23.971Z,23.92
2023-05-04T11:37:23.999Z,23.43
2023-05-04T11:38:24.055Z,22.39
2023-05-04T11:39:23.989Z,23.11
2023-05-04T11:40:23.997Z,22.78
2023-05-04T11:41:24.006Z,23.09
2023-05-04T11:42:23.956Z,22.39
2023-05-04T11:43:23.995Z,22.08
2023-05-04T11:44:24.004Z,22.32
2023-05-04T11:45:24.011Z,21.67
2023-05-04T11:46:24.162Z,21.45
2023-05-04T11:47:24.046Z,21.94
2023-05-04T11:48:24.029Z,20.77
2023-05-04T11:49:24.062Z,21.65
2023-05-04T11:50:24.071Z,21.46
2023-05-04T11:51:24.094Z,20.76
2023-05-04T11:52:24.088Z,21.65
2023-05-04T11:53:24.111Z,21.71
2023-05-04T11:54:24.066Z,21.28
2023-05-04T11:55:24.071Z,20.87
2023-05-04T11:56:24.071Z,20.92
2023-05-04T11:57:24.106Z,21.18
2023-05-04T11:58:24.080Z,21.44
2023-05-04T11:59:24.107Z,21.50
2023-05-04T12:00:24.121Z,20.46
2023-05-04T12:01:24.062Z,20.28
2023-05-04T12:02:24.156Z,20.29
2023-05-04T12:03:25.833Z,20.29
2023-05-04T12:04:24.173Z,20.27
2023-05-04T12:05:24.064Z,20.64
2023-05-04T12:06:24.051Z,20.45
2023-05-04T12:07:24.098Z,20.82
2023-05-04T12:08:24.046Z,20.23
2023-05-04T12:09:24.066Z,20.06
2023-05-04T12:10:24.037Z,19.91
2023-05-04T12:11:24.060Z,19.44
2023-05-04T12:12:24.030Z,19.10
2023-05-04T12:13:24.024Z,19.26
2023-05-04T12:14:24.023Z,19.37
2023-05-04T12:15:24.040Z,19.95
2023-05-04T12:16:23.998Z,19.98
2023-05-04T12:17:24.073Z,19.96
2023-05-04T12:18:24.031Z,19.69
2023-05-04T12:19:24.139Z,20.00
2023-05-04T12:20:23.975Z,19.77
2023-05-04T12:21:23.954Z,19.71
2023-05-04T12:22:23.960Z,18.65
2023-05-04T12:23:23.994Z,19.42
2023-05-04T12:24:23.949Z,19.92
2023-05-04T12:25:23.977Z,20.21
2023-05-04T12:26:23.934Z,19.83
2023-05-04T12:27:23.945Z,20.00
2023-05-04T12:28:23.926Z,19.29
2023-05-04T12:29:23.930Z,20.00
2023-05-04T12:30:23.908Z,19.22
2023-05-04T12:31:25.095Z,18.70
2023-05-04T12:32:23.881Z,18.41
2023-05-04T12:33:23.872Z,18.96
2023-05-04T12:34:23.866Z,18.66
2023-05-04T12:35:23.863Z,18.66
2023-05-04T12:36:23.877Z,19.11
2023-05-04T12:37:25.146Z,18.89
2023-05-04T12:38:23.836Z,19.57
2023-05-04T12:39:23.866Z,18.89
2023-05-04T12:40:28.621Z,19.18
2023-05-04T12:41:24.869Z,17.78
2023-05-04T12:42:23.802Z,18.97
2023-05-04T12:43:23.811Z,19.63
2023-05-04T12:44:23.777Z,19.47
2023-05-04T12:45:23.811Z,19.16
2023-05-04T12:46:23.859Z,19.33
2023-05-04T12:47:23.859Z,19.18
2023-05-04T12:48:23.749Z,18.19
2023-05-04T12:49:24.821Z,18.28
2023-05-04T12:50:23.809Z,19.04
2023-05-04T12:51:23.712Z,19.09
2023-05-04T12:52:23.744Z,19.48
2023-05-04T12:53:23.759Z,18.22
2023-05-04T12:54:23.752Z,19.18
2023-05-04T12:55:25.414Z,19.55